sensor_id;sensor_type;location;lat;lon;timestamp;pressure;altitude;pressure_sealevel;temperature;humidity
84817;BME280;75051;53.104;18.058;2024-02-28T00:01:30;100973.17;;;5.83;81.87
84817;BME280;75051;53.104;18.058;2024-02-28T00:03:57;100976.73;;;5.81;81.76
84817;BME280;75051;53.104;18.058;2024-02-28T00:06:24;100979.67;;;5.83;81.89
84817;BME280;75051;53.104;18.058;2024-02-28T00:08:51;100974.26;;;5.83;81.82
84817;BME280;75051;53.104;18.058;2024-02-28T00:11:21;100969.25;;;5.82;82.03
84817;BME280;75051;53.104;18.058;2024-02-28T00:13:48;100964.41;;;5.82;82.29
84817;BME280;75051;53.104;18.058;2024-02-28T00:16:15;100966.13;;;5.83;81.99
84817;BME280;75051;53.104;18.058;2024-02-28T00:18:41;100968.05;;;5.86;81.79
84817;BME280;75051;53.104;18.058;2024-02-28T00:21:08;100973.84;;;5.88;81.83
84817;BME280;75051;53.104;18.058;2024-02-28T00:23:34;100973.69;;;5.88;81.76
84817;BME280;75051;53.104;18.058;2024-02-28T00:26:01;100979.16;;;5.86;81.85
84817;BME280;75051;53.104;18.058;2024-02-28T00:28:28;100987.05;;;5.85;81.63
84817;BME280;75051;53.104;18.058;2024-02-28T00:30:54;100985.90;;;5.85;81.78
84817;BME280;75051;53.104;18.058;2024-02-28T00:33:21;100984.65;;;5.85;81.62
84817;BME280;75051;53.104;18.058;2024-02-28T00:35:47;100984.58;;;5.84;81.84
84817;BME280;75051;53.104;18.058;2024-02-28T00:38:14;100988.77;;;5.82;81.91
84817;BME280;75051;53.104;18.058;2024-02-28T00:40:41;100989.52;;;5.81;81.89
84817;BME280;75051;53.104;18.058;2024-02-28T00:43:07;100991.11;;;5.81;81.79
84817;BME280;75051;53.104;18.058;2024-02-28T00:45:34;100990.41;;;5.81;82.01
84817;BME280;75051;53.104;18.058;2024-02-28T00:48:00;100992.59;;;5.81;81.89
84817;BME280;75051;53.104;18.058;2024-02-28T00:50:27;100993.77;;;5.80;81.93
84817;BME280;75051;53.104;18.058;2024-02-28T00:52:54;100990.86;;;5.78;81.92
84817;BME280;75051;53.104;18.058;2024-02-28T00:55:20;100991.91;;;5.76;81.94
84817;BME280;75051;53.104;18.058;2024-02-28T00:57:47;100991.52;;;5.76;81.92
84817;BME280;75051;53.104;18.058;2024-02-28T01:00:14;100993.59;;;5.76;82.03
84817;BME280;75051;53.104;18.058;2024-02-28T01:02:40;100990.33;;;5.76;82.00
84817;BME280;75051;53.104;18.058;2024-02-28T01:05:10;100986.55;;;5.74;82.01
84817;BME280;75051;53.104;18.058;2024-02-28T01:07:36;100984.81;;;5.71;82.05
84817;BME280;75051;53.104;18.058;2024-02-28T01:10:03;100980.06;;;5.70;82.12
84817;BME280;75051;53.104;18.058;2024-02-28T01:12:30;100974.42;;;5.71;82.17
84817;BME280;75051;53.104;18.058;2024-02-28T01:14:57;100977.02;;;5.70;82.13
84817;BME280;75051;53.104;18.058;2024-02-28T01:17:23;100971.54;;;5.66;82.14
84817;BME280;75051;53.104;18.058;2024-02-28T01:19:50;100962.42;;;5.64;82.15
84817;BME280;75051;53.104;18.058;2024-02-28T01:22:17;100967.08;;;5.62;82.10
84817;BME280;75051;53.104;18.058;2024-02-28T01:24:43;100970.30;;;5.62;82.14
84817;BME280;75051;53.104;18.058;2024-02-28T01:27:10;100973.83;;;5.61;82.21
84817;BME280;75051;53.104;18.058;2024-02-28T01:29:42;100970.30;;;5.60;82.07
84817;BME280;75051;53.104;18.058;2024-02-28T01:32:09;100977.05;;;5.59;82.04
84817;BME280;75051;53.104;18.058;2024-02-28T01:34:36;100980.39;;;5.55;82.08
84817;BME280;75051;53.104;18.058;2024-02-28T01:37:02;100983.27;;;5.55;82.40
84817;BME280;75051;53.104;18.058;2024-02-28T01:39:29;100986.17;;;5.57;82.34
84817;BME280;75051;53.104;18.058;2024-02-28T01:41:56;100985.33;;;5.58;82.23
84817;BME280;75051;53.104;18.058;2024-02-28T01:44:23;100984.52;;;5.59;82.18
84817;BME280;75051;53.104;18.058;2024-02-28T01:46:50;100987.91;;;5.57;82.07
84817;BME280;75051;53.104;18.058;2024-02-28T01:49:17;100991.59;;;5.57;81.84
84817;BME280;75051;53.104;18.058;2024-02-28T01:51:44;100994.60;;;5.55;82.01
84817;BME280;75051;53.104;18.058;2024-02-28T01:54:13;100995.66;;;5.55;82.18
84817;BME280;75051;53.104;18.058;2024-02-28T01:56:41;100994.77;;;5.57;81.69
84817;BME280;75051;53.104;18.058;2024-02-28T01:59:09;100998.02;;;5.57;82.01
84817;BME280;75051;53.104;18.058;2024-02-28T02:01:37;101001.05;;;5.58;82.16
84817;BME280;75051;53.104;18.058;2024-02-28T02:04:04;100995.98;;;5.58;82.07
84817;BME280;75051;53.104;18.058;2024-02-28T02:06:32;100993.84;;;5.56;82.06
84817;BME280;75051;53.104;18.058;2024-02-28T02:09:01;100993.84;;;5.54;81.94
84817;BME280;75051;53.104;18.058;2024-02-28T02:11:28;100993.08;;;5.52;82.03
84817;BME280;75051;53.104;18.058;2024-02-28T02:13:55;100994.70;;;5.52;81.91
84817;BME280;75051;53.104;18.058;2024-02-28T02:16:21;100988.70;;;5.50;82.09
84817;BME280;75051;53.104;18.058;2024-02-28T02:18:49;100994.54;;;5.50;81.95
84817;BME280;75051;53.104;18.058;2024-02-28T02:21:17;100994.31;;;5.50;82.02
84817;BME280;75051;53.104;18.058;2024-02-28T02:23:46;100993.11;;;5.50;82.08
84817;BME280;75051;53.104;18.058;2024-02-28T02:26:13;100996.10;;;5.52;82.27
84817;BME280;75051;53.104;18.058;2024-02-28T02:28:39;100993.59;;;5.54;82.31
84817;BME280;75051;53.104;18.058;2024-02-28T02:31:06;100990.44;;;5.56;81.94
84817;BME280;75051;53.104;18.058;2024-02-28T02:33:32;100991.20;;;5.55;81.93
84817;BME280;75051;53.104;18.058;2024-02-28T02:36:02;100989.36;;;5.53;82.06
84817;BME280;75051;53.104;18.058;2024-02-28T02:38:29;100988.95;;;5.52;82.10
84817;BME280;75051;53.104;18.058;2024-02-28T02:40:55;100986.48;;;5.51;81.91
84817;BME280;75051;53.104;18.058;2024-02-28T02:43:22;100983.04;;;5.52;81.91
84817;BME280;75051;53.104;18.058;2024-02-28T02:45:49;100982.80;;;5.53;82.28
84817;BME280;75051;53.104;18.058;2024-02-28T02:48:16;100986.78;;;5.52;82.14
84817;BME280;75051;53.104;18.058;2024-02-28T02:50:43;100983.43;;;5.49;82.26
84817;BME280;75051;53.104;18.058;2024-02-28T02:53:10;100979.24;;;5.48;82.23
84817;BME280;75051;53.104;18.058;2024-02-28T02:55:37;100977.38;;;5.49;82.33
84817;BME280;75051;53.104;18.058;2024-02-28T02:58:03;100968.90;;;5.49;82.26
84817;BME280;75051;53.104;18.058;2024-02-28T03:00:30;100968.64;;;5.48;82.04
84817;BME280;75051;53.104;18.058;2024-02-28T03:02:57;100966.60;;;5.46;82.02
84817;BME280;75051;53.104;18.058;2024-02-28T03:05:24;100967.91;;;5.44;82.04
84817;BME280;75051;53.104;18.058;2024-02-28T03:07:50;100968.27;;;5.42;82.45
84817;BME280;75051;53.104;18.058;2024-02-28T03:10:17;100967.05;;;5.41;82.30
84817;BME280;75051;53.104;18.058;2024-02-28T03:12:43;100971.73;;;5.41;82.32
84817;BME280;75051;53.104;18.058;2024-02-28T03:15:10;100972.29;;;5.43;82.48
84817;BME280;75051;53.104;18.058;2024-02-28T03:17:37;100972.58;;;5.42;82.55
84817;BME280;75051;53.104;18.058;2024-02-28T03:20:04;100976.18;;;5.39;82.63
84817;BME280;75051;53.104;18.058;2024-02-28T03:22:33;100976.80;;;5.38;82.31
84817;BME280;75051;53.104;18.058;2024-02-28T03:25:00;100975.69;;;5.39;82.50
84817;BME280;75051;53.104;18.058;2024-02-28T03:27:27;100972.30;;;5.38;82.63
84817;BME280;75051;53.104;18.058;2024-02-28T03:29:53;100970.67;;;5.37;82.65
84817;BME280;75051;53.104;18.058;2024-02-28T03:32:20;100974.46;;;5.36;82.44
84817;BME280;75051;53.104;18.058;2024-02-28T03:34:46;100975.85;;;5.35;82.59
84817;BME280;75051;53.104;18.058;2024-02-28T03:37:13;100980.33;;;5.35;82.67
84817;BME280;75051;53.104;18.058;2024-02-28T03:39:40;100979.98;;;5.35;82.72
84817;BME280;75051;53.104;18.058;2024-02-28T03:42:06;100978.02;;;5.35;82.66
84817;BME280;75051;53.104;18.058;2024-02-28T03:44:33;100975.98;;;5.35;82.54
84817;BME280;75051;53.104;18.058;2024-02-28T03:46:59;100979.69;;;5.37;82.57
84817;BME280;75051;53.104;18.058;2024-02-28T03:49:26;100975.45;;;5.35;82.71
84817;BME280;75051;53.104;18.058;2024-02-28T03:51:53;100975.64;;;5.33;82.66
84817;BME280;75051;53.104;18.058;2024-02-28T03:54:20;100971.94;;;5.30;82.83
84817;BME280;75051;53.104;18.058;2024-02-28T03:56:46;100973.21;;;5.28;82.67
84817;BME280;75051;53.104;18.058;2024-02-28T03:59:13;100973.97;;;5.27;82.70
84817;BME280;75051;53.104;18.058;2024-02-28T04:01:39;100974.68;;;5.27;82.49
84817;BME280;75051;53.104;18.058;2024-02-28T04:04:06;100974.61;;;5.24;82.42
84817;BME280;75051;53.104;18.058;2024-02-28T04:06:34;100973.79;;;5.20;82.80
84817;BME280;75051;53.104;18.058;2024-02-28T04:09:00;100975.31;;;5.19;82.66
84817;BME280;75051;53.104;18.058;2024-02-28T04:11:27;100975.46;;;5.20;82.62
84817;BME280;75051;53.104;18.058;2024-02-28T04:13:54;100974.95;;;5.22;82.59
84817;BME280;75051;53.104;18.058;2024-02-28T04:16:22;100973.51;;;5.22;82.70
84817;BME280;75051;53.104;18.058;2024-02-28T04:18:48;100974.36;;;5.20;82.86
84817;BME280;75051;53.104;18.058;2024-02-28T04:21:15;100974.02;;;5.18;82.84
84817;BME280;75051;53.104;18.058;2024-02-28T04:23:41;100974.73;;;5.18;82.72
84817;BME280;75051;53.104;18.058;2024-02-28T04:26:08;100977.80;;;5.18;82.58
84817;BME280;75051;53.104;18.058;2024-02-28T04:28:36;100976.17;;;5.18;82.69
84817;BME280;75051;53.104;18.058;2024-02-28T04:31:02;100978.58;;;5.17;82.72
84817;BME280;75051;53.104;18.058;2024-02-28T04:33:29;100980.07;;;5.16;82.73
84817;BME280;75051;53.104;18.058;2024-02-28T04:35:56;100983.30;;;5.16;82.80
84817;BME280;75051;53.104;18.058;2024-02-28T04:38:22;100983.12;;;5.19;82.84
84817;BME280;75051;53.104;18.058;2024-02-28T04:40:49;100987.23;;;5.21;82.45
84817;BME280;75051;53.104;18.058;2024-02-28T04:43:16;100984.83;;;5.22;82.65
84817;BME280;75051;53.104;18.058;2024-02-28T04:45:42;100986.39;;;5.23;82.48
84817;BME280;75051;53.104;18.058;2024-02-28T04:48:09;100988.97;;;5.24;82.71
84817;BME280;75051;53.104;18.058;2024-02-28T04:50:36;100987.92;;;5.26;82.58
84817;BME280;75051;53.104;18.058;2024-02-28T04:53:03;100987.55;;;5.28;82.76
84817;BME280;75051;53.104;18.058;2024-02-28T04:55:29;100985.45;;;5.30;82.49
84817;BME280;75051;53.104;18.058;2024-02-28T04:57:56;100988.84;;;5.32;82.32
84817;BME280;75051;53.104;18.058;2024-02-28T05:00:23;100981.53;;;5.32;82.46
84817;BME280;75051;53.104;18.058;2024-02-28T05:02:49;100986.37;;;5.30;82.35
84817;BME280;75051;53.104;18.058;2024-02-28T05:05:16;100988.28;;;5.28;82.55
84817;BME280;75051;53.104;18.058;2024-02-28T05:07:43;100992.20;;;5.31;82.54
84817;BME280;75051;53.104;18.058;2024-02-28T05:10:09;100990.83;;;5.32;82.51
84817;BME280;75051;53.104;18.058;2024-02-28T05:12:36;100992.45;;;5.34;82.35
84817;BME280;75051;53.104;18.058;2024-02-28T05:15:03;100994.16;;;5.33;82.48
84817;BME280;75051;53.104;18.058;2024-02-28T05:17:30;100994.40;;;5.32;82.58
84817;BME280;75051;53.104;18.058;2024-02-28T05:19:57;100996.80;;;5.32;82.49
84817;BME280;75051;53.104;18.058;2024-02-28T05:22:24;100997.16;;;5.32;82.33
84817;BME280;75051;53.104;18.058;2024-02-28T05:24:50;100996.93;;;5.32;82.40
84817;BME280;75051;53.104;18.058;2024-02-28T05:27:17;101004.79;;;5.31;82.24
84817;BME280;75051;53.104;18.058;2024-02-28T05:29:44;101001.80;;;5.30;82.40
84817;BME280;75051;53.104;18.058;2024-02-28T05:32:10;101000.20;;;5.30;82.59
84817;BME280;75051;53.104;18.058;2024-02-28T05:34:39;101002.73;;;5.29;82.60
84817;BME280;75051;53.104;18.058;2024-02-28T05:37:06;101000.78;;;5.31;82.21
84817;BME280;75051;53.104;18.058;2024-02-28T05:39:33;101002.89;;;5.32;82.48
84817;BME280;75051;53.104;18.058;2024-02-28T05:41:59;101003.86;;;5.33;82.40
84817;BME280;75051;53.104;18.058;2024-02-28T05:44:26;101006.21;;;5.31;82.36
84817;BME280;75051;53.104;18.058;2024-02-28T05:46:58;101015.41;;;5.26;82.54
84817;BME280;75051;53.104;18.058;2024-02-28T05:49:25;101012.75;;;5.23;82.59
84817;BME280;75051;53.104;18.058;2024-02-28T05:51:52;101015.29;;;5.25;82.70
84817;BME280;75051;53.104;18.058;2024-02-28T05:54:20;101015.30;;;5.27;82.65
84817;BME280;75051;53.104;18.058;2024-02-28T05:56:47;101021.98;;;5.29;82.53
84817;BME280;75051;53.104;18.058;2024-02-28T05:59:14;101023.64;;;5.31;82.32
84817;BME280;75051;53.104;18.058;2024-02-28T06:01:40;101027.94;;;5.31;82.12
84817;BME280;75051;53.104;18.058;2024-02-28T06:04:07;101027.33;;;5.30;82.44
84817;BME280;75051;53.104;18.058;2024-02-28T06:06:37;101035.91;;;5.32;82.14
84817;BME280;75051;53.104;18.058;2024-02-28T06:09:03;101032.96;;;5.33;82.46
84817;BME280;75051;53.104;18.058;2024-02-28T06:11:30;101037.95;;;5.36;82.32
84817;BME280;75051;53.104;18.058;2024-02-28T06:13:57;101042.36;;;5.34;82.30
84817;BME280;75051;53.104;18.058;2024-02-28T06:16:23;101042.07;;;5.32;82.33
84817;BME280;75051;53.104;18.058;2024-02-28T06:18:50;101043.42;;;5.31;82.24
84817;BME280;75051;53.104;18.058;2024-02-28T06:21:17;101049.36;;;5.32;82.46
84817;BME280;75051;53.104;18.058;2024-02-28T06:23:43;101046.93;;;5.36;82.11
84817;BME280;75051;53.104;18.058;2024-02-28T06:26:10;101051.48;;;5.37;82.17
84817;BME280;75051;53.104;18.058;2024-02-28T06:28:43;101054.90;;;5.35;82.18
84817;BME280;75051;53.104;18.058;2024-02-28T06:31:15;101061.29;;;5.36;82.41
84817;BME280;75051;53.104;18.058;2024-02-28T06:33:43;101060.39;;;5.38;82.53
84817;BME280;75051;53.104;18.058;2024-02-28T06:36:12;101056.38;;;5.41;82.29
84817;BME280;75051;53.104;18.058;2024-02-28T06:38:39;101060.79;;;5.44;82.19
84817;BME280;75051;53.104;18.058;2024-02-28T06:41:06;101063.48;;;5.46;82.22
84817;BME280;75051;53.104;18.058;2024-02-28T06:43:33;101068.83;;;5.47;82.33
84817;BME280;75051;53.104;18.058;2024-02-28T06:46:02;101069.23;;;5.46;82.03
84817;BME280;75051;53.104;18.058;2024-02-28T06:48:29;101075.20;;;5.45;82.26
84817;BME280;75051;53.104;18.058;2024-02-28T06:50:56;101082.71;;;5.46;82.23
84817;BME280;75051;53.104;18.058;2024-02-28T06:53:25;101084.08;;;5.45;82.28
84817;BME280;75051;53.104;18.058;2024-02-28T06:55:55;101080.48;;;5.45;82.43
84817;BME280;75051;53.104;18.058;2024-02-28T06:58:21;101079.77;;;5.47;82.40
84817;BME280;75051;53.104;18.058;2024-02-28T07:00:51;101077.72;;;5.48;82.24
84817;BME280;75051;53.104;18.058;2024-02-28T07:03:18;101081.05;;;5.49;82.15
84817;BME280;75051;53.104;18.058;2024-02-28T07:05:44;101084.19;;;5.50;82.05
84817;BME280;75051;53.104;18.058;2024-02-28T07:08:11;101087.33;;;5.51;81.94
84817;BME280;75051;53.104;18.058;2024-02-28T07:10:38;101081.90;;;5.54;82.27
84817;BME280;75051;53.104;18.058;2024-02-28T07:13:09;101083.70;;;5.56;82.13
84817;BME280;75051;53.104;18.058;2024-02-28T07:15:37;101088.37;;;5.58;81.88
84817;BME280;75051;53.104;18.058;2024-02-28T07:18:05;101094.91;;;5.59;81.98
84817;BME280;75051;53.104;18.058;2024-02-28T07:20:32;101096.29;;;5.60;81.81
84817;BME280;75051;53.104;18.058;2024-02-28T07:23:02;101096.61;;;5.60;82.07
84817;BME280;75051;53.104;18.058;2024-02-28T07:25:28;101102.95;;;5.62;81.95
84817;BME280;75051;53.104;18.058;2024-02-28T07:27:57;101102.96;;;5.64;81.79
84817;BME280;75051;53.104;18.058;2024-02-28T07:30:24;101103.83;;;5.67;81.74
84817;BME280;75051;53.104;18.058;2024-02-28T07:32:51;101100.95;;;5.69;82.23
84817;BME280;75051;53.104;18.058;2024-02-28T07:35:18;101105.05;;;5.71;81.95
84817;BME280;75051;53.104;18.058;2024-02-28T07:37:45;101108.65;;;5.71;81.93
84817;BME280;75051;53.104;18.058;2024-02-28T07:40:13;101114.32;;;5.72;81.80
84817;BME280;75051;53.104;18.058;2024-02-28T07:42:39;101116.54;;;5.76;81.75
84817;BME280;75051;53.104;18.058;2024-02-28T07:45:06;101118.44;;;5.79;81.56
84817;BME280;75051;53.104;18.058;2024-02-28T07:47:35;101116.55;;;5.80;81.79
84817;BME280;75051;53.104;18.058;2024-02-28T07:50:01;101118.05;;;5.81;81.73
84817;BME280;75051;53.104;18.058;2024-02-28T07:52:28;101112.41;;;5.82;81.57
84817;BME280;75051;53.104;18.058;2024-02-28T07:54:54;101107.77;;;5.84;81.61
84817;BME280;75051;53.104;18.058;2024-02-28T07:57:21;101113.83;;;5.87;81.49
84817;BME280;75051;53.104;18.058;2024-02-28T07:59:48;101114.34;;;5.89;81.57
84817;BME280;75051;53.104;18.058;2024-02-28T08:02:14;101117.39;;;5.93;81.51
84817;BME280;75051;53.104;18.058;2024-02-28T08:04:41;101117.66;;;5.97;81.55
84817;BME280;75051;53.104;18.058;2024-02-28T08:07:08;101112.84;;;5.98;81.39
84817;BME280;75051;53.104;18.058;2024-02-28T08:09:34;101116.95;;;6.01;81.37
84817;BME280;75051;53.104;18.058;2024-02-28T08:12:02;101111.61;;;6.04;81.20
84817;BME280;75051;53.104;18.058;2024-02-28T08:14:29;101114.38;;;6.06;80.81
84817;BME280;75051;53.104;18.058;2024-02-28T08:16:55;101113.71;;;6.10;81.37
84817;BME280;75051;53.104;18.058;2024-02-28T08:19:22;101114.83;;;6.13;80.86
84817;BME280;75051;53.104;18.058;2024-02-28T08:21:49;101115.89;;;6.15;80.66
84817;BME280;75051;53.104;18.058;2024-02-28T08:24:18;101115.52;;;6.18;80.91
84817;BME280;75051;53.104;18.058;2024-02-28T08:26:45;101116.06;;;6.22;80.65
84817;BME280;75051;53.104;18.058;2024-02-28T08:29:12;101110.50;;;6.26;80.69
84817;BME280;75051;53.104;18.058;2024-02-28T08:31:43;101105.99;;;6.28;80.69
84817;BME280;75051;53.104;18.058;2024-02-28T08:34:11;101106.58;;;6.30;80.76
84817;BME280;75051;53.104;18.058;2024-02-28T08:36:38;101107.33;;;6.34;80.80
84817;BME280;75051;53.104;18.058;2024-02-28T08:39:05;101109.90;;;6.37;80.80
84817;BME280;75051;53.104;18.058;2024-02-28T08:41:33;101118.73;;;6.45;80.82
84817;BME280;75051;53.104;18.058;2024-02-28T08:44:00;101114.84;;;6.84;83.37
84817;BME280;75051;53.104;18.058;2024-02-28T08:46:27;101116.28;;;7.22;81.69
84817;BME280;75051;53.104;18.058;2024-02-28T08:48:53;101116.08;;;7.28;80.15
84817;BME280;75051;53.104;18.058;2024-02-28T08:51:20;101125.82;;;7.28;79.95
84817;BME280;75051;53.104;18.058;2024-02-28T08:53:47;101127.48;;;7.24;79.59
84817;BME280;75051;53.104;18.058;2024-02-28T08:56:13;101126.47;;;7.21;79.64
84817;BME280;75051;53.104;18.058;2024-02-28T08:58:40;101120.21;;;7.18;79.41
84817;BME280;75051;53.104;18.058;2024-02-28T09:01:07;101124.74;;;7.16;79.43
84817;BME280;75051;53.104;18.058;2024-02-28T09:03:33;101130.70;;;7.08;79.38
84817;BME280;75051;53.104;18.058;2024-02-28T09:06:00;101134.34;;;7.04;79.77
84817;BME280;75051;53.104;18.058;2024-02-28T09:08:28;101133.36;;;7.00;79.51
84817;BME280;75051;53.104;18.058;2024-02-28T09:10:54;101130.60;;;6.95;79.46
84817;BME280;75051;53.104;18.058;2024-02-28T09:13:23;101128.36;;;6.92;79.57
84817;BME280;75051;53.104;18.058;2024-02-28T09:15:50;101131.09;;;6.91;79.33
84817;BME280;75051;53.104;18.058;2024-02-28T09:18:17;101142.26;;;6.90;79.60
84817;BME280;75051;53.104;18.058;2024-02-28T09:20:43;101147.58;;;6.84;79.63
84817;BME280;75051;53.104;18.058;2024-02-28T09:23:10;101150.36;;;6.81;79.82
84817;BME280;75051;53.104;18.058;2024-02-28T09:25:37;101143.98;;;6.84;79.89
84817;BME280;75051;53.104;18.058;2024-02-28T09:28:03;101138.30;;;6.89;79.93
84817;BME280;75051;53.104;18.058;2024-02-28T09:30:30;101141.71;;;6.94;79.92
84817;BME280;75051;53.104;18.058;2024-02-28T09:32:57;101143.91;;;6.95;79.65
84817;BME280;75051;53.104;18.058;2024-02-28T09:35:25;101142.98;;;6.97;79.65
84817;BME280;75051;53.104;18.058;2024-02-28T09:37:51;101146.85;;;7.01;79.70
84817;BME280;75051;53.104;18.058;2024-02-28T09:40:18;101151.49;;;7.03;79.61
84817;BME280;75051;53.104;18.058;2024-02-28T09:43:01;101145.16;;;7.06;79.44
84817;BME280;75051;53.104;18.058;2024-02-28T09:45:30;101145.02;;;7.13;79.43
84817;BME280;75051;53.104;18.058;2024-02-28T09:47:59;101146.40;;;7.16;79.38
84817;BME280;75051;53.104;18.058;2024-02-28T09:50:27;101149.34;;;7.19;79.32
84817;BME280;75051;53.104;18.058;2024-02-28T09:52:55;101152.52;;;7.22;79.46
84817;BME280;75051;53.104;18.058;2024-02-28T09:55:22;101155.72;;;7.24;79.22
84817;BME280;75051;53.104;18.058;2024-02-28T09:57:50;101156.02;;;7.25;79.21
84817;BME280;75051;53.104;18.058;2024-02-28T10:00:19;101156.74;;;7.29;79.13
84817;BME280;75051;53.104;18.058;2024-02-28T10:02:47;101161.39;;;7.32;79.13
84817;BME280;75051;53.104;18.058;2024-02-28T10:05:16;101167.73;;;7.31;79.03
84817;BME280;75051;53.104;18.058;2024-02-28T10:07:45;101167.85;;;7.32;79.20
84817;BME280;75051;53.104;18.058;2024-02-28T10:10:16;101172.03;;;7.33;78.94
84817;BME280;75051;53.104;18.058;2024-02-28T10:12:45;101172.82;;;7.35;78.90
84817;BME280;75051;53.104;18.058;2024-02-28T10:15:12;101182.50;;;7.35;79.00
84817;BME280;75051;53.104;18.058;2024-02-28T10:17:38;101183.51;;;7.36;79.02
84817;BME280;75051;53.104;18.058;2024-02-28T10:20:06;101182.41;;;7.38;79.25
84817;BME280;75051;53.104;18.058;2024-02-28T10:22:37;101182.08;;;7.40;79.24
84817;BME280;75051;53.104;18.058;2024-02-28T10:25:04;101180.88;;;7.44;79.09
84817;BME280;75051;53.104;18.058;2024-02-28T10:27:35;101184.03;;;7.46;78.88
84817;BME280;75051;53.104;18.058;2024-02-28T10:30:03;101184.73;;;7.48;78.90
84817;BME280;75051;53.104;18.058;2024-02-28T10:32:34;101189.13;;;7.50;79.14
84817;BME280;75051;53.104;18.058;2024-02-28T10:35:02;101192.34;;;7.50;79.00
84817;BME280;75051;53.104;18.058;2024-02-28T10:37:30;101195.17;;;7.49;78.72
84817;BME280;75051;53.104;18.058;2024-02-28T10:40:00;101197.01;;;7.46;78.71
84817;BME280;75051;53.104;18.058;2024-02-28T10:42:29;101194.94;;;7.45;78.90
84817;BME280;75051;53.104;18.058;2024-02-28T10:44:57;101197.73;;;7.44;78.99
84817;BME280;75051;53.104;18.058;2024-02-28T10:47:27;101197.11;;;7.43;78.94
84817;BME280;75051;53.104;18.058;2024-02-28T10:49:54;101198.64;;;7.38;78.80
84817;BME280;75051;53.104;18.058;2024-02-28T10:52:22;101198.39;;;7.35;79.07
84817;BME280;75051;53.104;18.058;2024-02-28T10:54:54;101196.33;;;7.38;79.09
84817;BME280;75051;53.104;18.058;2024-02-28T10:57:25;101197.28;;;7.39;79.02
84817;BME280;75051;53.104;18.058;2024-02-28T10:59:53;101195.02;;;7.40;78.98
84817;BME280;75051;53.104;18.058;2024-02-28T11:02:22;101193.13;;;7.41;79.00
84817;BME280;75051;53.104;18.058;2024-02-28T11:04:54;101193.19;;;7.43;79.14
84817;BME280;75051;53.104;18.058;2024-02-28T11:07:22;101196.36;;;7.47;79.14
84817;BME280;75051;53.104;18.058;2024-02-28T11:09:54;101196.62;;;7.53;79.07
84817;BME280;75051;53.104;18.058;2024-02-28T11:12:28;101193.14;;;7.57;78.87
84817;BME280;75051;53.104;18.058;2024-02-28T11:15:00;101193.51;;;7.61;78.87
84817;BME280;75051;53.104;18.058;2024-02-28T11:17:32;101194.43;;;7.65;78.83
84817;BME280;75051;53.104;18.058;2024-02-28T11:19:59;101196.38;;;7.67;78.70
84817;BME280;75051;53.104;18.058;2024-02-28T11:22:29;101195.84;;;7.67;78.69
84817;BME280;75051;53.104;18.058;2024-02-28T11:24:56;101195.16;;;7.69;78.61
84817;BME280;75051;53.104;18.058;2024-02-28T11:27:23;101194.25;;;7.69;78.70
84817;BME280;75051;53.104;18.058;2024-02-28T11:29:50;101199.27;;;7.69;78.61
84817;BME280;75051;53.104;18.058;2024-02-28T11:32:16;101197.13;;;7.69;78.65
84817;BME280;75051;53.104;18.058;2024-02-28T11:34:43;101195.88;;;7.71;78.79
84817;BME280;75051;53.104;18.058;2024-02-28T11:37:11;101194.95;;;7.75;78.90
84817;BME280;75051;53.104;18.058;2024-02-28T11:39:38;101197.10;;;7.79;78.51
84817;BME280;75051;53.104;18.058;2024-02-28T11:42:15;101201.76;;;7.86;78.59
84817;BME280;75051;53.104;18.058;2024-02-28T11:44:43;101203.73;;;7.92;78.33
84817;BME280;75051;53.104;18.058;2024-02-28T11:47:10;101204.25;;;7.94;78.32
84817;BME280;75051;53.104;18.058;2024-02-28T11:49:38;101203.47;;;7.96;78.24
84817;BME280;75051;53.104;18.058;2024-02-28T11:52:05;101201.62;;;7.95;77.98
84817;BME280;75051;53.104;18.058;2024-02-28T11:54:33;101203.64;;;7.95;78.24
84817;BME280;75051;53.104;18.058;2024-02-28T11:56:59;101204.11;;;7.97;78.22
84817;BME280;75051;53.104;18.058;2024-02-28T11:59:26;101205.06;;;7.99;78.22
84817;BME280;75051;53.104;18.058;2024-02-28T12:01:53;101207.02;;;7.99;78.24
84817;BME280;75051;53.104;18.058;2024-02-28T12:04:24;101205.08;;;8.00;78.09
84817;BME280;75051;53.104;18.058;2024-02-28T12:06:51;101206.23;;;8.00;77.80
84817;BME280;75051;53.104;18.058;2024-02-28T12:09:18;101211.02;;;8.02;78.11
84817;BME280;75051;53.104;18.058;2024-02-28T12:11:46;101210.56;;;8.05;77.83
84817;BME280;75051;53.104;18.058;2024-02-28T12:14:12;101215.02;;;8.06;77.93
84817;BME280;75051;53.104;18.058;2024-02-28T12:16:39;101212.30;;;8.06;78.14
84817;BME280;75051;53.104;18.058;2024-02-28T12:19:10;101220.62;;;8.08;78.15
84817;BME280;75051;53.104;18.058;2024-02-28T12:21:38;101220.86;;;8.09;77.99
84817;BME280;75051;53.104;18.058;2024-02-28T12:24:08;101217.93;;;8.12;77.94
84817;BME280;75051;53.104;18.058;2024-02-28T12:26:38;101219.12;;;8.17;77.76
84817;BME280;75051;53.104;18.058;2024-02-28T12:29:05;101217.23;;;8.17;77.48
84817;BME280;75051;53.104;18.058;2024-02-28T12:31:32;101216.06;;;8.18;77.70
84817;BME280;75051;53.104;18.058;2024-02-28T12:33:59;101215.59;;;8.20;77.53
84817;BME280;75051;53.104;18.058;2024-02-28T12:36:27;101214.70;;;8.20;77.49
84817;BME280;75051;53.104;18.058;2024-02-28T12:38:55;101220.27;;;8.22;77.22
84817;BME280;75051;53.104;18.058;2024-02-28T12:41:22;101221.17;;;8.22;77.07
84817;BME280;75051;53.104;18.058;2024-02-28T12:43:49;101222.78;;;8.20;76.97
84817;BME280;75051;53.104;18.058;2024-02-28T12:46:16;101224.88;;;8.19;77.26
84817;BME280;75051;53.104;18.058;2024-02-28T12:48:43;101220.30;;;8.17;77.10
84817;BME280;75051;53.104;18.058;2024-02-28T12:54:00;101219.03;;;8.14;77.20